Time;durP1;ratioP1;P1;durP2;ratioP2;P2;SDS_P1;SDS_P2;PMS_P1;PMS_P2;Temp;Humidity;BMP_temperature;BMP_pressure;BME280_temperature;BME280_humidity;BME280_pressure;Samples;Min_cycle;Max_cycle;Signal;HPM_P1;HPM_P2
2024/01/23 00:01:42;;;;;;;15.93;4.83;;;;;;;7.05;91.14;101536.44;5262125;28;20021;-72
2024/01/23 00:04:13;;;;;;;15.73;4.60;;;;;;;7.05;90.93;101541.63;5261665;28;20041;-72
2024/01/23 00:06:45;;;;;;;21.70;5.10;;;;;;;6.99;91.52;101559.69;5263031;28;20371;-70
2024/01/23 00:09:16;;;;;;;14.07;3.73;;;;;;;6.92;92.45;101565.63;5262840;28;20033;-72
2024/01/23 00:11:47;;;;;;;13.17;4.37;;;;;;;6.92;92.34;101582.06;5247825;28;20064;-72
2024/01/23 00:14:19;;;;;;;17.73;4.87;;;;;;;6.91;92.67;101575.13;5241809;28;20030;-71
2024/01/23 00:16:50;;;;;;;17.97;5.60;;;;;;;6.94;92.18;101582.94;5241122;28;20033;-72
2024/01/23 00:19:21;;;;;;;18.93;5.73;;;;;;;6.99;91.59;101580.44;5241935;28;20033;-72
2024/01/23 00:21:53;;;;;;;21.77;5.07;;;;;;;6.99;91.71;101593.38;5242004;28;20060;-72
2024/01/23 00:24:24;;;;;;;15.27;4.40;;;;;;;6.98;91.93;101591.63;5242752;28;20030;-72
2024/01/23 00:26:56;;;;;;;12.23;4.40;;;;;;;6.97;92.19;101596.78;5241634;28;20381;-72
2024/01/23 00:29:27;;;;;;;16.07;5.27;;;;;;;6.96;92.31;101595.94;5240687;28;20040;-71
2024/01/23 00:31:58;;;;;;;19.80;5.17;;;;;;;6.95;92.44;101609.72;5241313;28;20087;-71
2024/01/23 00:34:30;;;;;;;19.27;5.30;;;;;;;6.95;92.65;101596.75;5241314;28;20134;-71
2024/01/23 00:37:03;;;;;;;22.03;5.13;;;;;;;6.96;92.77;101600.25;5241691;28;20030;-72
2024/01/23 00:39:38;;;;;;;16.85;4.97;;;;;;;7.00;92.03;101626.22;5241514;28;20041;-71
2024/01/23 00:42:09;;;;;;;18.58;5.68;;;;;;;7.00;92.24;101602.03;5241458;28;20033;-71
2024/01/23 00:44:40;;;;;;;18.83;4.40;;;;;;;6.99;92.67;101631.38;5241132;28;20057;-71
2024/01/23 00:47:12;;;;;;;19.80;5.87;;;;;;;6.98;92.83;101621.88;5241280;28;20037;-71
2024/01/23 00:49:44;;;;;;;17.80;4.63;;;;;;;6.98;92.76;101638.28;5241181;28;20042;-72
2024/01/23 00:52:15;;;;;;;23.17;5.67;;;;;;;6.96;92.52;101644.31;5241461;28;20072;-71
2024/01/23 00:54:46;;;;;;;19.07;5.83;;;;;;;6.99;92.32;101633.97;5241040;28;20134;-72
2024/01/23 00:57:18;;;;;;;16.00;4.67;;;;;;;6.98;92.75;101611.50;5241080;28;20083;-71
2024/01/23 00:59:49;;;;;;;20.67;5.27;;;;;;;6.89;92.95;101636.44;5240547;28;20056;-71
2024/01/23 01:02:21;;;;;;;18.80;5.87;;;;;;;6.83;93.24;101653.63;5239855;28;20029;-71
2024/01/23 01:04:52;;;;;;;20.20;4.33;;;;;;;6.85;92.54;101664.88;5241136;28;20080;-72
2024/01/23 01:07:23;;;;;;;14.57;4.77;;;;;;;6.72;93.01;101651.69;5241010;28;20030;-72
2024/01/23 01:09:55;;;;;;;15.97;3.97;;;;;;;6.66;93.64;101650.72;5241070;28;20040;-72
2024/01/23 01:12:26;;;;;;;17.57;5.30;;;;;;;6.56;93.87;101671.28;5240940;28;20087;-71
2024/01/23 01:14:58;;;;;;;19.83;5.60;;;;;;;6.50;94.20;101672.88;5240511;28;20040;-71
2024/01/23 01:17:29;;;;;;;15.87;4.67;;;;;;;6.49;94.04;101674.63;5240762;28;20030;-71
2024/01/23 01:20:01;;;;;;;21.13;5.27;;;;;;;6.50;93.01;101681.53;5240853;28;20044;-71
2024/01/23 01:22:32;;;;;;;16.03;4.77;;;;;;;6.52;93.30;101679.84;5239256;28;20453;-71
2024/01/23 01:25:04;;;;;;;16.97;5.23;;;;;;;6.42;93.94;101696.06;5240519;28;20052;-71
2024/01/23 01:27:35;;;;;;;19.50;5.33;;;;;;;6.35;94.51;101691.63;5240720;28;20061;-71
2024/01/23 01:30:07;;;;;;;20.03;5.63;;;;;;;6.41;93.50;101698.59;5240336;28;20061;-70
2024/01/23 01:32:38;;;;;;;20.37;4.23;;;;;;;6.27;94.58;101704.41;5240603;28;20072;-72
2024/01/23 01:35:10;;;;;;;31.50;6.67;;;;;;;6.25;94.96;101711.28;5240689;28;20039;-70
2024/01/23 01:37:41;;;;;;;21.63;5.23;;;;;;;6.26;95.10;101706.97;5240814;28;20034;-71
2024/01/23 01:40:15;;;;;;;21.77;6.10;;;;;;;6.28;94.72;101715.63;5240207;28;20042;-71
2024/01/23 01:42:47;;;;;;;23.65;9.40;;;;;;;6.32;94.40;101723.50;5240509;28;20029;-72
2024/01/23 01:45:18;;;;;;;20.93;5.43;;;;;;;6.23;95.17;101740.56;5240624;28;20064;-72
2024/01/23 01:47:50;;;;;;;24.27;6.60;;;;;;;6.22;95.07;101742.28;5240541;28;20037;-72
2024/01/23 01:50:22;;;;;;;18.05;5.35;;;;;;;6.27;94.68;101722.53;5240510;28;20033;-72
2024/01/23 01:52:54;;;;;;;18.35;5.93;;;;;;;6.22;95.02;101725.88;5240234;28;20030;-72
2024/01/23 01:55:25;;;;;;;26.53;5.23;;;;;;;6.08;95.95;101734.22;5240404;28;20424;-72
2024/01/23 01:57:56;;;;;;;20.17;5.70;;;;;;;6.10;95.95;101734.25;5239087;28;20034;-73
2024/01/23 02:00:28;;;;;;;19.53;5.50;;;;;;;6.12;95.61;101749.00;5239690;28;20029;-72
2024/01/23 02:02:59;;;;;;;17.33;5.37;;;;;;;6.17;95.36;101767.22;5240083;28;20385;-72
2024/01/23 02:05:30;;;;;;;20.57;4.53;;;;;;;6.22;95.13;101768.19;5240326;28;20415;-72
2024/01/23 02:08:02;;;;;;;13.83;3.90;;;;;;;6.09;95.96;101764.44;5239979;28;20064;-72
2024/01/23 02:10:33;;;;;;;22.17;5.57;;;;;;;6.06;96.02;101769.56;5240706;28;20112;-72
2024/01/23 02:13:06;;;;;;;14.43;5.57;;;;;;;6.00;96.62;101782.38;5240339;28;20030;-72
2024/01/23 02:15:38;;;;;;;21.52;4.80;;;;;;;5.94;97.12;101788.25;5240308;28;20029;-72
2024/01/23 02:18:09;;;;;;;17.93;4.33;;;;;;;5.98;97.13;101786.63;5239856;28;20100;-72
2024/01/23 02:20:40;;;;;;;21.17;7.43;;;;;;;6.09;96.39;101784.31;5240493;28;20390;-70
2024/01/23 02:23:13;;;;;;;24.10;5.73;;;;;;;6.02;96.84;101778.09;5240258;28;20531;-71
2024/01/23 02:25:45;;;;;;;20.48;4.85;;;;;;;5.90;97.41;101795.91;5240154;28;20025;-72
2024/01/23 02:28:16;;;;;;;16.27;5.70;;;;;;;5.88;97.66;101797.59;5243876;28;20033;-72
2024/01/23 02:30:47;;;;;;;20.70;5.23;;;;;;;5.94;97.38;101813.25;5243536;28;20090;-72
2024/01/23 02:33:19;;;;;;;24.53;6.27;;;;;;;5.92;97.42;101805.44;5243973;28;20029;-71
2024/01/23 02:35:50;;;;;;;20.00;5.50;;;;;;;5.83;98.03;101810.44;5244245;28;20072;-72
2024/01/23 02:38:21;;;;;;;23.47;6.13;;;;;;;5.73;98.83;101817.09;5243917;28;20041;-72
2024/01/23 02:40:53;;;;;;;15.63;5.00;;;;;;;5.79;98.80;101830.16;5243613;28;20036;-71
2024/01/23 02:43:24;;;;;;;20.43;5.23;;;;;;;5.76;99.04;101827.50;5243627;28;20183;-71
2024/01/23 02:45:55;;;;;;;13.40;4.50;;;;;;;5.80;99.08;101844.00;5243956;28;20072;-72
2024/01/23 02:48:27;;;;;;;17.27;5.53;;;;;;;5.84;98.92;101850.97;5243504;28;20116;-71
2024/01/23 02:50:58;;;;;;;19.23;5.90;;;;;;;5.80;99.20;101842.28;5243767;28;20036;-72
2024/01/23 02:53:30;;;;;;;22.17;5.60;;;;;;;5.68;100.00;101856.63;5243673;28;20033;-72
2024/01/23 02:56:02;;;;;;;15.07;4.87;;;;;;;5.80;99.79;101851.75;5243352;28;20060;-71
2024/01/23 02:58:33;;;;;;;18.55;5.13;;;;;;;5.73;100.00;101873.13;5243450;28;20033;-72
2024/01/23 03:01:05;;;;;;;24.23;5.93;;;;;;;5.74;100.00;101872.31;5243156;28;20123;-71
2024/01/23 03:03:36;;;;;;;22.17;6.53;;;;;;;5.65;100.00;101875.50;5243487;28;20056;-72
2024/01/23 03:06:07;;;;;;;22.00;7.07;;;;;;;5.61;100.00;101886.66;5243473;28;20061;-72
2024/01/23 03:08:39;;;;;;;24.93;6.13;;;;;;;5.68;100.00;101887.66;5243063;28;20038;-71
2024/01/23 03:11:10;;;;;;;28.27;6.00;;;;;;;5.77;100.00;101888.78;5243081;28;20033;-71
2024/01/23 03:13:41;;;;;;;21.90;5.60;;;;;;;5.86;100.00;101898.50;5243341;28;20072;-71
2024/01/23 03:16:13;;;;;;;15.47;5.10;;;;;;;5.85;100.00;101900.19;5242825;28;20021;-70
2024/01/23 03:18:44;;;;;;;17.17;4.83;;;;;;;5.89;100.00;101902.84;5243045;28;20412;-71
2024/01/23 03:21:16;;;;;;;22.30;5.70;;;;;;;5.93;99.71;101913.31;5243055;28;20029;-70
2024/01/23 03:23:47;;;;;;;23.90;5.77;;;;;;;5.90;99.71;101918.41;5242944;28;20030;-71
2024/01/23 03:26:19;;;;;;;25.03;6.47;;;;;;;5.87;99.62;101922.66;5242942;28;20021;-70
2024/01/23 03:28:50;;;;;;;25.90;7.60;;;;;;;5.78;100.00;101934.50;5242337;28;20735;-71
2024/01/23 03:31:22;;;;;;;27.07;6.13;;;;;;;5.69;100.00;101923.94;5242642;28;20029;-71
2024/01/23 03:33:53;;;;;;;26.20;6.87;;;;;;;5.63;100.00;101927.22;5258067;28;20033;-71
2024/01/23 03:36:24;;;;;;;22.93;6.77;;;;;;;5.60;100.00;101911.66;5242574;28;20365;-71
2024/01/23 03:38:56;;;;;;;22.17;5.30;;;;;;;5.54;100.00;101921.81;5241124;28;20488;-71
2024/01/23 03:41:27;;;;;;;21.43;6.07;;;;;;;5.48;100.00;101919.06;5242701;28;20033;-71
2024/01/23 03:43:58;;;;;;;27.37;6.17;;;;;;;5.46;100.00;101915.59;5242529;28;20029;-71
2024/01/23 03:46:30;;;;;;;25.73;5.57;;;;;;;5.46;100.00;101923.34;5242693;28;20056;-71
2024/01/23 03:49:01;;;;;;;19.73;6.10;;;;;;;5.44;100.00;101933.63;5242562;28;20092;-71
2024/01/23 03:51:33;;;;;;;22.83;7.33;;;;;;;5.36;100.00;101955.84;5242229;28;20029;-71
2024/01/23 03:54:04;;;;;;;22.77;5.47;;;;;;;5.32;100.00;101951.41;5242390;28;20175;-71
2024/01/23 03:56:35;;;;;;;25.77;6.33;;;;;;;5.34;100.00;101962.66;5241076;28;20029;-71
2024/01/23 03:59:07;;;;;;;24.93;7.27;;;;;;;5.33;100.00;101968.69;5241958;28;20033;-71
2024/01/23 04:01:38;;;;;;;21.53;6.60;;;;;;;5.34;100.00;101979.88;5242332;28;20029;-71
2024/01/23 04:04:10;;;;;;;23.43;5.47;;;;;;;5.27;100.00;101973.66;5242357;28;20022;-70
2024/01/23 04:06:41;;;;;;;19.53;5.60;;;;;;;5.17;100.00;101975.13;5242120;28;20480;-71
2024/01/23 04:09:12;;;;;;;18.37;4.97;;;;;;;5.18;100.00;101979.44;5241819;28;20114;-71
2024/01/23 04:11:45;;;;;;;20.33;5.40;;;;;;;5.10;100.00;101976.66;5241971;28;20029;-71
2024/01/23 04:14:17;;;;;;;21.63;5.88;;;;;;;5.05;100.00;101973.03;5241545;28;20030;-71
2024/01/23 04:16:48;;;;;;;22.37;6.43;;;;;;;5.08;100.00;101980.00;5242058;28;20399;-71
2024/01/23 04:19:20;;;;;;;19.60;5.73;;;;;;;5.04;100.00;101979.06;5241746;28;20074;-71
2024/01/23 04:21:51;;;;;;;27.10;6.63;;;;;;;5.03;100.00;101979.00;5241392;28;20026;-71
2024/01/23 04:24:23;;;;;;;26.30;5.63;;;;;;;5.06;100.00;101989.44;5241870;28;20045;-71
2024/01/23 04:26:54;;;;;;;24.43;6.70;;;;;;;5.04;100.00;101991.97;5240521;28;20041;-71
2024/01/23 04:29:25;;;;;;;22.63;6.23;;;;;;;5.05;100.00;101996.28;5241692;28;20037;-71
2024/01/23 04:31:57;;;;;;;21.77;6.30;;;;;;;5.00;100.00;101991.84;5241555;28;20102;-71
2024/01/23 04:34:28;;;;;;;22.70;5.03;;;;;;;4.98;100.00;102007.28;5241979;28;20059;-71
2024/01/23 04:36:59;;;;;;;22.80;5.00;;;;;;;4.92;100.00;102017.44;5241431;28;20072;-72
2024/01/23 04:39:31;;;;;;;25.13;5.60;;;;;;;4.89;100.00;102030.28;5240300;28;20026;-72
2024/01/23 04:42:02;;;;;;;19.70;5.43;;;;;;;4.91;100.00;102033.75;5241606;28;20107;-71
2024/01/23 04:44:34;;;;;;;22.03;6.80;;;;;;;4.90;100.00;102045.81;5241400;28;20148;-71
2024/01/23 04:47:05;;;;;;;21.17;4.90;;;;;;;4.93;100.00;102055.38;5241620;28;20041;-71
2024/01/23 04:49:36;;;;;;;24.63;5.70;;;;;;;4.94;100.00;102062.28;5240878;28;20503;-71
2024/01/23 04:52:08;;;;;;;20.87;5.63;;;;;;;4.89;100.00;102066.44;5241089;28;20083;-71
2024/01/23 04:54:41;;;;;;;22.97;6.47;;;;;;;4.81;100.00;102065.31;5241364;28;20030;-71
2024/01/23 04:57:14;;;;;;;22.33;5.10;;;;;;;4.75;100.00;102060.84;5241149;28;20029;-71
2024/01/23 04:59:46;;;;;;;19.80;5.45;;;;;;;4.65;100.00;102067.41;5240791;28;20461;-71
2024/01/23 05:02:17;;;;;;;27.27;6.53;;;;;;;4.59;100.00;102063.75;5241147;28;20041;-70
2024/01/23 05:04:49;;;;;;;18.83;4.93;;;;;;;4.64;100.00;102073.41;5241223;28;20056;-71
2024/01/23 05:07:20;;;;;;;22.27;6.47;;;;;;;4.63;100.00;102084.56;5241079;28;20466;-71
2024/01/23 05:09:52;;;;;;;22.17;5.50;;;;;;;4.60;100.00;102096.50;5241251;28;20113;-71
2024/01/23 05:12:23;;;;;;;20.63;6.83;;;;;;;4.59;100.00;102093.06;5240967;28;20029;-71
2024/01/23 05:14:54;;;;;;;22.00;5.27;;;;;;;4.52;100.00;102107.47;5239567;28;20044;-71
2024/01/23 05:17:26;;;;;;;30.07;6.80;;;;;;;4.41;100.00;102118.25;5239580;28;20385;-72
2024/01/23 05:19:57;;;;;;;23.63;5.13;;;;;;;4.36;100.00;102119.00;5240963;28;20033;-72
2024/01/23 05:22:28;;;;;;;19.83;5.60;;;;;;;4.36;100.00;102119.00;5239550;28;20068;-72
2024/01/23 05:25:00;;;;;;;29.10;6.17;;;;;;;4.35;100.00;102112.06;5240550;28;20112;-72
2024/01/23 05:27:31;;;;;;;19.67;6.43;;;;;;;4.33;100.00;102124.06;5240701;28;20442;-70
2024/01/23 05:30:06;;;;;;;22.47;5.03;;;;;;;4.32;100.00;102122.28;5240246;28;20041;-71
2024/01/23 05:32:38;;;;;;;22.10;5.80;;;;;;;4.30;100.00;102128.22;5240590;28;20128;-71
2024/01/23 05:35:10;;;;;;;22.33;5.47;;;;;;;4.29;100.00;102132.50;5240727;28;20452;-72
2024/01/23 05:37:41;;;;;;;26.63;5.67;;;;;;;4.42;100.00;102141.53;5240586;28;20037;-71
2024/01/23 05:40:13;;;;;;;16.40;4.73;;;;;;;4.40;100.00;102135.47;5240908;28;20090;-73
2024/01/23 05:42:44;;;;;;;25.07;6.53;;;;;;;4.36;100.00;102149.97;5240482;28;20048;-71
2024/01/23 05:45:15;;;;;;;23.63;5.00;;;;;;;4.38;100.00;102157.78;5240293;28;20049;-71
2024/01/23 05:47:47;;;;;;;26.10;6.43;;;;;;;4.40;100.00;102152.66;5240440;28;20040;-71
2024/01/23 05:50:18;;;;;;;19.80;5.20;;;;;;;4.38;100.00;102166.38;5244998;28;20086;-71
2024/01/23 05:52:50;;;;;;;27.63;7.33;;;;;;;4.44;100.00;102177.75;5261242;28;20052;-70
2024/01/23 05:55:21;;;;;;;17.37;5.20;;;;;;;4.40;100.00;102188.81;5260921;28;20061;-71
2024/01/23 05:57:52;;;;;;;21.53;5.60;;;;;;;4.35;100.00;102183.47;5261220;28;20037;-72
2024/01/23 06:00:24;;;;;;;26.80;6.57;;;;;;;4.46;100.00;102189.00;5261728;28;20167;-73
2024/01/23 06:02:55;;;;;;;27.40;6.17;;;;;;;4.45;100.00;102189.84;5264757;28;20040;-73
2024/01/23 06:05:27;;;;;;;18.07;4.93;;;;;;;4.49;100.00;102194.28;5265494;28;20128;-73
2024/01/23 06:07:58;;;;;;;27.47;6.90;;;;;;;4.49;100.00;102196.84;5265372;28;20037;-73
2024/01/23 06:10:29;;;;;;;27.83;5.17;;;;;;;4.57;100.00;102188.56;5264173;28;20036;-73
2024/01/23 06:13:01;;;;;;;24.10;5.50;;;;;;;4.52;100.00;102205.63;5265648;28;20033;-72
2024/01/23 06:15:32;;;;;;;24.43;6.97;;;;;;;4.50;100.00;102194.31;5265451;28;20044;-71
2024/01/23 06:18:07;;;;;;;27.43;5.40;;;;;;;4.57;100.00;102206.66;5264942;28;20021;-71
2024/01/23 06:20:38;;;;;;;22.80;6.38;;;;;;;4.60;100.00;102192.94;5265057;28;20400;-71
2024/01/23 06:23:10;;;;;;;19.80;6.60;;;;;;;4.51;100.00;102200.41;5265282;28;20061;-72
2024/01/23 06:25:41;;;;;;;18.77;5.73;;;;;;;4.42;100.00;102208.69;5264880;28;20040;-72
2024/01/23 06:28:12;;;;;;;25.90;6.93;;;;;;;4.48;100.00;102206.31;5265120;28;20392;-72
2024/01/23 06:30:44;;;;;;;25.17;6.67;;;;;;;4.42;100.00;102229.34;5264319;28;20036;-72
2024/01/23 06:33:15;;;;;;;32.20;5.93;;;;;;;4.33;100.00;102219.56;5264991;28;20111;-73
2024/01/23 06:35:46;;;;;;;30.37;6.43;;;;;;;4.31;100.00;102230.66;5263518;28;20040;-73
2024/01/23 06:38:18;;;;;;;20.20;6.57;;;;;;;4.37;100.00;102241.19;5264755;28;20131;-73
2024/01/23 06:40:50;;;;;;;27.52;6.28;;;;;;;4.32;100.00;102241.03;5265026;28;20033;-72
2024/01/23 06:43:21;;;;;;;19.80;6.00;;;;;;;4.27;100.00;102242.56;5264912;28;20060;-73
2024/01/23 06:45:54;;;;;;;22.80;6.23;;;;;;;4.35;100.00;102233.41;5264544;28;20056;-72
2024/01/23 06:48:25;;;;;;;;;;;;;;;4.29;100.00;102247.78;5264958;28;20124;-72
2024/01/23 06:50:57;;;;;;;21.40;6.72;;;;;;;4.37;100.00;102256.69;5264692;28;20360;-72
2024/01/23 06:53:28;;;;;;;28.13;7.63;;;;;;;4.29;100.00;102251.25;5264775;28;20469;-69
2024/01/23 06:55:59;;;;;;;21.43;5.63;;;;;;;4.28;100.00;102244.34;5264323;28;20025;-70
2024/01/23 06:58:31;;;;;;;26.67;5.90;;;;;;;4.25;100.00;102253.66;5264335;28;20049;-71
2024/01/23 07:01:02;;;;;;;29.10;8.27;;;;;;;4.29;100.00;102263.28;5264000;28;20040;-71
2024/01/23 07:03:33;;;;;;;25.13;5.57;;;;;;;4.28;100.00;102266.69;5262761;28;20057;-71
2024/01/23 07:06:05;;;;;;;24.60;5.23;;;;;;;4.20;100.00;102266.38;5264157;28;20037;-70
2024/01/23 07:08:36;;;;;;;18.43;5.90;;;;;;;4.12;100.00;102260.06;5264081;28;20032;-71
2024/01/23 07:11:08;;;;;;;24.00;5.40;;;;;;;4.00;100.00;102261.34;5264129;28;20029;-71
2024/01/23 07:13:39;;;;;;;21.93;4.87;;;;;;;3.97;100.00;102262.94;5245441;28;20028;-72
2024/01/23 07:16:10;;;;;;;21.80;5.53;;;;;;;3.99;100.00;102272.53;5262635;28;20029;-71
2024/01/23 07:18:42;;;;;;;23.57;5.67;;;;;;;3.93;100.00;102274.88;5263897;28;20358;-72
2024/01/23 07:21:13;;;;;;;25.37;5.90;;;;;;;3.91;100.00;102279.09;5263988;28;20444;-71
2024/01/23 07:23:45;;;;;;;26.57;5.10;;;;;;;3.79;100.00;102274.31;5263886;28;20460;-72
2024/01/23 07:26:16;;;;;;;18.90;5.33;;;;;;;3.84;100.00;102283.09;5263863;28;20025;-71
2024/01/23 07:28:48;;;;;;;27.23;7.20;;;;;;;3.95;100.00;102295.56;5263444;28;20469;-72
2024/01/23 07:31:19;;;;;;;23.53;4.80;;;;;;;3.92;100.00;102291.16;5263251;28;20479;-72
2024/01/23 07:33:50;;;;;;;23.87;7.27;;;;;;;3.86;100.00;102301.22;5262498;28;20081;-72
2024/01/23 07:36:22;;;;;;;30.23;7.00;;;;;;;3.79;100.00;102294.09;5263481;28;20436;-72
2024/01/23 07:38:53;;;;;;;25.70;7.37;;;;;;;3.78;100.00;102300.94;5263076;28;20091;-72
2024/01/23 07:41:25;;;;;;;27.20;6.10;;;;;;;3.73;100.00;102314.47;5263198;28;20474;-72
2024/01/23 07:43:56;;;;;;;26.97;5.73;;;;;;;3.68;100.00;102313.41;5263420;28;20484;-72
2024/01/23 07:46:27;;;;;;;27.53;6.27;;;;;;;3.69;100.00;102310.00;5262959;28;20049;-71
2024/01/23 07:48:59;;;;;;;22.07;5.10;;;;;;;3.69;100.00;102310.00;5263165;28;20111;-71
2024/01/23 07:51:47;;;;;;;24.20;6.80;;;;;;;3.63;100.00;102298.63;5263199;28;20086;-71
2024/01/23 07:54:19;;;;;;;27.17;7.10;;;;;;;3.59;100.00;102308.75;5263294;28;20028;-72
2024/01/23 07:56:51;;;;;;;20.17;5.33;;;;;;;3.59;100.00;102314.81;5263394;28;20132;-71
2024/01/23 07:59:22;;;;;;;23.65;5.20;;;;;;;3.60;100.00;102316.53;5261144;28;20098;-72
2024/01/23 08:01:53;;;;;;;30.77;6.37;;;;;;;3.54;100.00;102324.06;5263063;28;20036;-71
2024/01/23 08:04:25;;;;;;;15.80;4.83;;;;;;;3.49;100.00;102325.53;5262896;28;20061;-71
2024/01/23 08:06:56;;;;;;;27.63;6.40;;;;;;;3.45;100.00;102321.97;5262726;28;20071;-72
2024/01/23 08:09:27;;;;;;;26.53;6.73;;;;;;;3.42;100.00;102336.44;5262860;28;20040;-71
2024/01/23 08:11:59;;;;;;;22.57;6.00;;;;;;;3.49;100.00;102338.44;5262909;28;20082;-71
2024/01/23 08:14:30;;;;;;;30.20;6.10;;;;;;;3.50;100.00;102345.38;5262751;28;20028;-71
2024/01/23 08:17:02;;;;;;;27.20;5.90;;;;;;;3.57;100.00;102349.06;5262767;28;20044;-71
2024/01/23 08:19:33;;;;;;;21.50;6.23;;;;;;;3.56;100.00;102348.19;5262294;28;20036;-71
2024/01/23 08:22:05;;;;;;;23.97;6.17;;;;;;;3.62;100.00;102363.03;5262402;28;20745;-72
2024/01/23 08:24:36;;;;;;;25.03;6.27;;;;;;;3.61;100.00;102362.16;5261794;28;20041;-72
2024/01/23 08:27:08;;;;;;;28.57;6.00;;;;;;;3.64;100.00;102362.28;5262532;28;20040;-71
2024/01/23 08:29:39;;;;;;;23.73;6.00;;;;;;;3.68;100.00;102360.69;5262041;28;20042;-72
2024/01/23 08:32:10;;;;;;;24.13;6.47;;;;;;;3.77;100.00;102370.53;5262585;28;20029;-72
2024/01/23 08:34:43;;;;;;;25.63;5.93;;;;;;;3.87;100.00;102384.69;5262079;28;20048;-72
2024/01/23 08:37:14;;;;;;;26.42;6.90;;;;;;;3.94;100.00;102395.28;5262156;28;20033;-72
2024/01/23 08:39:46;;;;;;;23.93;5.60;;;;;;;3.97;100.00;102392.81;5262184;28;20055;-72
2024/01/23 08:42:17;;;;;;;24.93;7.80;;;;;;;4.01;100.00;102394.72;5262083;28;20043;-72
2024/01/23 08:44:50;;;;;;;19.80;5.17;;;;;;;4.07;100.00;102404.41;5260654;28;20029;-72
2024/01/23 08:47:21;;;;;;;;;;;;;;;4.17;100.00;102421.13;5262593;28;20029;-72
2024/01/23 08:49:52;;;;;;;26.17;6.05;;;;;;;4.25;100.00;102408.53;5261783;28;19917;-71
2024/01/23 08:52:23;;;;;;;17.97;5.03;;;;;;;4.33;100.00;102415.78;5260827;28;20433;-72
2024/01/23 08:54:55;;;;;;;24.07;6.00;;;;;;;4.43;100.00;102409.25;5261829;28;20495;-72
2024/01/23 08:57:26;;;;;;;27.37;6.13;;;;;;;4.54;100.00;102412.22;5260622;28;20033;-72
2024/01/23 08:59:58;;;;;;;26.17;5.63;;;;;;;4.67;100.00;102418.75;5261558;28;20060;-72
2024/01/23 09:02:29;;;;;;;20.83;5.40;;;;;;;4.68;100.00;102423.09;5262217;28;20075;-71
2024/01/23 09:05:01;;;;;;;23.47;5.63;;;;;;;4.74;100.00;102413.00;5261888;28;20035;-71
2024/01/23 09:07:32;;;;;;;18.97;4.83;;;;;;;4.90;100.00;102415.31;5261819;28;20040;-71
2024/01/23 09:10:05;;;;;;;23.30;7.50;;;;;;;5.05;100.00;102420.16;5261985;28;20086;-71
2024/01/23 09:12:36;;;;;;;25.33;6.50;;;;;;;5.03;100.00;102426.13;5261835;28;20033;-71
2024/01/23 09:15:09;;;;;;;25.43;5.47;;;;;;;5.28;100.00;102420.09;5261715;28;20029;-71
2024/01/23 09:17:41;;;;;;;19.80;5.65;;;;;;;5.41;100.00;102422.31;5261586;28;20115;-71
2024/01/23 09:20:12;;;;;;;21.27;5.80;;;;;;;5.55;100.00;102425.38;5261659;28;20278;-72
2024/01/23 09:22:44;;;;;;;26.27;6.60;;;;;;;5.64;100.00;102423.09;5243712;28;20107;-72
2024/01/23 09:25:15;;;;;;;31.17;5.27;;;;;;;5.74;100.00;102423.41;5261165;28;20102;-72
2024/01/23 09:27:48;;;;;;;21.47;5.17;;;;;;;5.88;100.00;102403.19;5261202;28;20228;-72
2024/01/23 09:30:20;;;;;;;18.67;5.45;;;;;;;5.98;100.00;102410.44;5260993;28;20068;-72
2024/01/23 09:32:51;;;;;;;24.27;6.00;;;;;;;6.01;99.51;102408.81;5261547;28;20068;-73
2024/01/23 09:35:22;;;;;;;23.50;6.20;;;;;;;6.17;98.77;102415.38;5260826;28;20131;-71
2024/01/23 09:37:54;;;;;;;25.20;7.27;;;;;;;6.34;97.65;102409.81;5261315;28;20029;-71
2024/01/23 09:40:25;;;;;;;31.87;6.90;;;;;;;6.37;97.87;102421.16;5261430;28;20148;-72
2024/01/23 09:42:57;;;;;;;22.27;6.43;;;;;;;6.54;97.50;102411.31;5261407;28;20091;-72
2024/01/23 09:45:30;;;;;;;23.33;6.78;;;;;;;6.69;96.15;102408.28;5261311;28;20045;-72
2024/01/23 09:48:01;;;;;;;25.15;6.20;;;;;;;6.89;94.84;102421.84;5261345;28;20043;-72
2024/01/23 09:50:34;;;;;;;27.93;6.67;;;;;;;6.97;93.81;102428.94;5261083;28;20049;-72
2024/01/23 09:53:06;;;;;;;18.95;5.55;;;;;;;7.07;93.10;102415.44;5261319;28;20056;-72
2024/01/23 09:55:38;;;;;;;25.37;6.57;;;;;;;7.20;92.61;102425.28;5260952;28;20064;-72
2024/01/23 09:58:10;;;;;;;20.50;5.20;;;;;;;7.23;91.13;102430.56;5261064;28;20037;-73
2024/01/23 10:00:42;;;;;;;20.88;5.63;;;;;;;7.48;91.72;102419.13;5259659;28;20384;-73
2024/01/23 10:03:14;;;;;;;25.90;7.33;;;;;;;7.12;89.96;102430.25;5259966;28;20036;-71
2024/01/23 10:05:45;;;;;;;23.07;5.90;;;;;;;7.47;90.83;102426.84;5260983;28;20469;-72
2024/01/23 10:08:16;;;;;;;19.47;5.37;;;;;;;7.55;88.76;102430.56;5259918;28;20025;-72
2024/01/23 10:10:56;;;;;;;20.13;6.63;;;;;;;7.45;88.71;102433.72;5261153;28;20098;-72
2024/01/23 10:13:28;;;;;;;23.08;5.18;;;;;;;7.62;88.11;102437.66;5261070;28;20025;-73
2024/01/23 10:16:00;;;;;;;22.15;5.55;;;;;;;7.59;88.30;102437.56;5261070;28;20021;-72
2024/01/23 10:18:32;;;;;;;25.23;6.67;;;;;;;7.70;87.60;102440.44;5261097;28;20043;-72
2024/01/23 10:21:04;;;;;;;22.42;5.80;;;;;;;7.82;86.55;102439.88;5259661;28;20033;-72
2024/01/23 10:23:37;;;;;;;19.20;6.23;;;;;;;7.80;86.08;102444.16;5259433;28;20529;-72
2024/01/23 10:26:08;;;;;;;20.58;6.68;;;;;;;8.10;84.70;102440.53;5260973;28;20035;-72
2024/01/23 10:28:43;;;;;;;29.87;7.47;;;;;;;8.36;85.30;102425.59;5260778;28;20484;-72
2024/01/23 10:31:16;;;;;;;17.38;6.35;;;;;;;8.42;82.39;102425.72;5259455;28;20033;-72
2024/01/23 10:33:47;;;;;;;24.90;6.43;;;;;;;8.81;81.22;102431.81;5260695;28;20032;-71
2024/01/23 10:36:19;;;;;;;19.67;5.87;;;;;;;8.88;80.30;102442.34;5260718;28;20442;-72
2024/01/23 10:38:53;;;;;;;18.15;5.53;;;;;;;8.36;81.06;102430.78;5260773;28;20029;-72
2024/01/23 10:41:26;;;;;;;20.90;5.05;;;;;;;8.63;82.55;102443.56;5260791;28;20100;-72
2024/01/23 10:44:01;;;;;;;18.65;6.45;;;;;;;8.67;80.12;102442.75;5260812;28;20035;-72
2024/01/23 10:46:33;;;;;;;29.02;7.75;;;;;;;8.82;79.49;102441.34;5260300;28;20045;-72
2024/01/23 10:49:06;;;;;;;;;;;;;;;9.15;81.40;102443.75;5264548;28;20041;-72
2024/01/23 10:51:38;;;;;;;19.40;6.67;;;;;;;8.96;79.90;102432.09;5264469;28;19913;-72
2024/01/23 10:54:15;;;;;;;21.42;6.03;;;;;;;8.69;78.58;102428.06;5264444;28;20040;-72
2024/01/23 10:56:50;;;;;;;25.08;6.28;;;;;;;8.73;79.45;102411.69;5264536;28;20029;-72
2024/01/23 10:59:27;;;;;;;26.25;7.38;;;;;;;9.07;80.25;102414.13;5263533;28;20082;-72
2024/01/23 11:02:42;;;;;;;24.55;6.93;;;;;;;9.16;76.95;102429.91;5264253;28;20029;-71
2024/01/23 11:05:14;;;;;;;20.70;6.72;;;;;;;9.28;75.56;102419.72;5264248;28;20036;-72
2024/01/23 11:08:01;;;;;;;19.87;6.10;;;;;;;9.31;75.67;102424.97;5264361;28;20095;-72
2024/01/23 11:10:46;;;;;;;17.27;6.00;;;;;;;9.06;77.09;102428.81;5264293;28;20380;-72
2024/01/23 11:13:46;;;;;;;25.10;7.55;;;;;;;9.03;79.21;102407.97;5263857;28;20033;-71
2024/01/23 11:16:18;;;;;;;21.00;6.22;;;;;;;8.53;78.56;102390.50;5262715;28;20021;-72
2024/01/23 11:18:52;;;;;;;21.20;6.43;;;;;;;8.44;79.57;102395.47;5263983;28;20115;-71
2024/01/23 11:21:24;;;;;;;22.15;6.97;;;;;;;8.43;80.70;102387.63;5263873;28;20029;-71
2024/01/23 11:24:00;;;;;;;26.07;7.47;;;;;;;8.43;80.72;102377.22;5263569;28;20032;-72
2024/01/23 11:26:32;;;;;;;17.77;5.60;;;;;;;8.40;81.20;102359.84;5263890;28;20108;-72
2024/01/23 11:29:04;;;;;;;22.00;6.30;;;;;;;8.38;81.73;102349.41;5263790;28;20116;-72
2024/01/23 11:31:40;;;;;;;22.20;6.30;;;;;;;8.34;81.55;102375.28;5263292;28;20056;-72
2024/01/23 11:34:21;;;;;;;26.60;6.85;;;;;;;8.39;82.88;102361.56;5263803;28;20044;-72
2024/01/23 11:36:52;;;;;;;21.02;5.13;;;;;;;8.37;83.69;102360.66;5263279;28;20036;-72
2024/01/23 11:39:25;;;;;;;23.10;5.87;;;;;;;8.51;82.57;102362.72;5263142;28;20037;-72
2024/01/23 11:41:58;;;;;;;26.50;7.32;;;;;;;8.59;82.90;102363.75;5263301;28;20099;-72
2024/01/23 11:44:30;;;;;;;20.60;6.63;;;;;;;8.64;82.25;102354.31;5263437;28;20055;-72